LIPH/TSF METAR and TAF weather

Enter ICAO airport designator
Station Type Date Time Source
LIPH METAR 2020/07/06 00:50 UTC NOAA

LIPH 060050Z AUTO 00000KT 9999 NCD 21/18 Q1012


Station Type Date Time Source
LIPH Decoded METAR 2020/07/06 00:50 UTC NOAA

Treviso / S. Angelo, Italy (LIPH) 45-39N 012-11E 23M
Jul 05, 2020 - 08:50 PM EDT / 2020.07.06 0050 UTC
Wind: Calm:0
Visibility: greater than 7 mile(s):0
Temperature: 69 F (21 C)
Dew Point: 64 F (18 C)
Relative Humidity: 82%
Pressure (altimeter): 29.88 in. Hg (1012 hPa)
ob: LIPH 060050Z AUTO 00000KT 9999 NCD 21/18 Q1012
cycle: 1

Station Type Date Time Source
LIPH TAF 2020/07/05 18:21 UTC NOAA

TAF LIPH 051700Z 0518/0618 VRB05KT CAVOK

Example: see airport list